sensor_id;sensor_type;location;lat;lon;timestamp;P1;durP1;ratioP1;P2;durP2;ratioP2
24813;SDS011;12904;50.088;11.414;2024-03-23T00:55:37;6.60;;;5.22;;
24813;SDS011;12904;50.088;11.414;2024-03-23T00:58:03;6.70;;;5.05;;
24813;SDS011;12904;50.088;11.414;2024-03-23T01:00:28;8.20;;;6.30;;
24813;SDS011;12904;50.088;11.414;2024-03-23T01:02:54;5.57;;;4.97;;
24813;SDS011;12904;50.088;11.414;2024-03-23T01:05:20;7.65;;;6.22;;
24813;SDS011;12904;50.088;11.414;2024-03-23T01:07:45;6.35;;;5.75;;
24813;SDS011;12904;50.088;11.414;2024-03-23T01:10:11;8.05;;;5.40;;
24813;SDS011;12904;50.088;11.414;2024-03-23T01:12:36;8.90;;;5.78;;
24813;SDS011;12904;50.088;11.414;2024-03-23T01:15:02;6.63;;;6.03;;
24813;SDS011;12904;50.088;11.414;2024-03-23T01:17:28;6.65;;;5.95;;
24813;SDS011;12904;50.088;11.414;2024-03-23T01:19:53;6.28;;;5.60;;
24813;SDS011;12904;50.088;11.414;2024-03-23T01:22:19;7.00;;;6.38;;
24813;SDS011;12904;50.088;11.414;2024-03-23T01:24:45;8.90;;;6.13;;
24813;SDS011;12904;50.088;11.414;2024-03-23T01:27:10;7.68;;;5.95;;
24813;SDS011;12904;50.088;11.414;2024-03-23T01:29:36;7.65;;;6.38;;
24813;SDS011;12904;50.088;11.414;2024-03-23T01:32:02;7.25;;;6.32;;
24813;SDS011;12904;50.088;11.414;2024-03-23T01:34:27;6.50;;;5.82;;
24813;SDS011;12904;50.088;11.414;2024-03-23T01:36:53;6.85;;;6.22;;
24813;SDS011;12904;50.088;11.414;2024-03-23T01:39:19;9.80;;;5.82;;
24813;SDS011;12904;50.088;11.414;2024-03-23T01:41:44;7.65;;;6.55;;
24813;SDS011;12904;50.088;11.414;2024-03-23T01:44:10;6.82;;;6.13;;
24813;SDS011;12904;50.088;11.414;2024-03-23T01:46:36;8.63;;;6.82;;
24813;SDS011;12904;50.088;11.414;2024-03-23T01:49:03;6.68;;;5.97;;
24813;SDS011;12904;50.088;11.414;2024-03-23T01:51:30;7.90;;;6.47;;
24813;SDS011;12904;50.088;11.414;2024-03-23T01:53:57;6.82;;;6.10;;
24813;SDS011;12904;50.088;11.414;2024-03-23T01:56:25;7.47;;;6.53;;
24813;SDS011;12904;50.088;11.414;2024-03-23T01:58:51;6.75;;;5.93;;
24813;SDS011;12904;50.088;11.414;2024-03-23T02:01:17;7.53;;;6.30;;
24813;SDS011;12904;50.088;11.414;2024-03-23T02:03:42;6.75;;;6.10;;
24813;SDS011;12904;50.088;11.414;2024-03-23T02:06:08;7.60;;;6.18;;
24813;SDS011;12904;50.088;11.414;2024-03-23T02:08:34;7.40;;;6.43;;
24813;SDS011;12904;50.088;11.414;2024-03-23T02:10:59;7.60;;;6.47;;
24813;SDS011;12904;50.088;11.414;2024-03-23T02:13:25;6.80;;;6.15;;
24813;SDS011;12904;50.088;11.414;2024-03-23T02:15:51;7.15;;;5.85;;
24813;SDS011;12904;50.088;11.414;2024-03-23T02:18:17;10.38;;;7.25;;
24813;SDS011;12904;50.088;11.414;2024-03-23T02:20:43;7.32;;;6.63;;
24813;SDS011;12904;50.088;11.414;2024-03-23T02:23:15;6.78;;;6.07;;
24813;SDS011;12904;50.088;11.414;2024-03-23T02:25:42;7.85;;;6.88;;
24813;SDS011;12904;50.088;11.414;2024-03-23T02:28:08;6.90;;;6.20;;
24813;SDS011;12904;50.088;11.414;2024-03-23T02:30:34;7.32;;;6.63;;
24813;SDS011;12904;50.088;11.414;2024-03-23T02:33:00;8.10;;;6.65;;
24813;SDS011;12904;50.088;11.414;2024-03-23T02:35:26;8.43;;;7.50;;
24813;SDS011;12904;50.088;11.414;2024-03-23T02:37:52;8.13;;;7.32;;
24813;SDS011;12904;50.088;11.414;2024-03-23T02:40:18;9.35;;;6.75;;
24813;SDS011;12904;50.088;11.414;2024-03-23T02:42:45;6.93;;;6.22;;
24813;SDS011;12904;50.088;11.414;2024-03-23T02:45:11;8.10;;;7.30;;
24813;SDS011;12904;50.088;11.414;2024-03-23T02:47:37;8.10;;;7.05;;
24813;SDS011;12904;50.088;11.414;2024-03-23T02:50:02;8.52;;;7.72;;
24813;SDS011;12904;50.088;11.414;2024-03-23T02:52:29;9.35;;;7.13;;
24813;SDS011;12904;50.088;11.414;2024-03-23T02:54:55;12.38;;;7.75;;
24813;SDS011;12904;50.088;11.414;2024-03-23T02:57:20;13.77;;;8.45;;
24813;SDS011;12904;50.088;11.414;2024-03-23T02:59:46;11.25;;;7.05;;
24813;SDS011;12904;50.088;11.414;2024-03-23T03:02:13;9.23;;;7.82;;
24813;SDS011;12904;50.088;11.414;2024-03-23T03:04:39;7.85;;;7.05;;
24813;SDS011;12904;50.088;11.414;2024-03-23T03:07:04;8.18;;;6.82;;
24813;SDS011;12904;50.088;11.414;2024-03-23T03:09:30;10.00;;;8.35;;
24813;SDS011;12904;50.088;11.414;2024-03-23T03:11:56;8.35;;;7.38;;
24813;SDS011;12904;50.088;11.414;2024-03-23T03:14:22;10.98;;;7.40;;
24813;SDS011;12904;50.088;11.414;2024-03-23T03:16:47;8.45;;;7.47;;
24813;SDS011;12904;50.088;11.414;2024-03-23T03:19:13;7.85;;;7.05;;
24813;SDS011;12904;50.088;11.414;2024-03-23T03:21:39;7.80;;;6.57;;
24813;SDS011;12904;50.088;11.414;2024-03-23T03:24:05;12.00;;;7.38;;
24813;SDS011;12904;50.088;11.414;2024-03-23T03:26:31;11.82;;;8.30;;
24813;SDS011;12904;50.088;11.414;2024-03-23T03:28:57;7.68;;;6.65;;
24813;SDS011;12904;50.088;11.414;2024-03-23T03:31:23;8.43;;;7.47;;
24813;SDS011;12904;50.088;11.414;2024-03-23T03:33:49;8.57;;;7.78;;
24813;SDS011;12904;50.088;11.414;2024-03-23T03:36:18;8.60;;;7.70;;
24813;SDS011;12904;50.088;11.414;2024-03-23T03:38:44;10.82;;;8.18;;
24813;SDS011;12904;50.088;11.414;2024-03-23T03:41:09;9.35;;;7.22;;
24813;SDS011;12904;50.088;11.414;2024-03-23T03:43:35;9.55;;;8.07;;
24813;SDS011;12904;50.088;11.414;2024-03-23T03:46:01;12.20;;;6.82;;
24813;SDS011;12904;50.088;11.414;2024-03-23T03:48:27;10.27;;;7.53;;
24813;SDS011;12904;50.088;11.414;2024-03-23T03:50:53;7.68;;;6.90;;
24813;SDS011;12904;50.088;11.414;2024-03-23T03:53:19;8.05;;;7.35;;
24813;SDS011;12904;50.088;11.414;2024-03-23T03:55:45;8.63;;;7.40;;
24813;SDS011;12904;50.088;11.414;2024-03-23T03:58:11;7.53;;;6.82;;
24813;SDS011;12904;50.088;11.414;2024-03-23T04:00:37;10.75;;;7.47;;
24813;SDS011;12904;50.088;11.414;2024-03-23T04:03:02;9.05;;;7.93;;
24813;SDS011;12904;50.088;11.414;2024-03-23T04:05:28;10.27;;;7.90;;
24813;SDS011;12904;50.088;11.414;2024-03-23T04:07:54;7.47;;;6.60;;
24813;SDS011;12904;50.088;11.414;2024-03-23T04:10:20;17.25;;;9.45;;
24813;SDS011;12904;50.088;11.414;2024-03-23T04:12:45;9.65;;;7.43;;
24813;SDS011;12904;50.088;11.414;2024-03-23T04:15:12;9.85;;;7.35;;
24813;SDS011;12904;50.088;11.414;2024-03-23T04:17:38;9.30;;;7.55;;
24813;SDS011;12904;50.088;11.414;2024-03-23T04:20:04;8.90;;;7.25;;
24813;SDS011;12904;50.088;11.414;2024-03-23T04:22:34;7.80;;;7.05;;
24813;SDS011;12904;50.088;11.414;2024-03-23T04:24:59;8.95;;;7.88;;
24813;SDS011;12904;50.088;11.414;2024-03-23T04:27:31;9.05;;;7.00;;
24813;SDS011;12904;50.088;11.414;2024-03-23T04:30:00;8.68;;;7.78;;
24813;SDS011;12904;50.088;11.414;2024-03-23T04:32:26;8.93;;;7.82;;
24813;SDS011;12904;50.088;11.414;2024-03-23T04:34:52;9.60;;;8.50;;
24813;SDS011;12904;50.088;11.414;2024-03-23T04:37:18;15.50;;;7.82;;
24813;SDS011;12904;50.088;11.414;2024-03-23T04:39:44;8.70;;;7.82;;
24813;SDS011;12904;50.088;11.414;2024-03-23T04:42:10;9.15;;;8.10;;
24813;SDS011;12904;50.088;11.414;2024-03-23T04:44:37;13.63;;;8.27;;
24813;SDS011;12904;50.088;11.414;2024-03-23T04:47:02;13.30;;;8.63;;
24813;SDS011;12904;50.088;11.414;2024-03-23T04:49:28;13.18;;;9.25;;
24813;SDS011;12904;50.088;11.414;2024-03-23T04:51:54;14.98;;;9.63;;
24813;SDS011;12904;50.088;11.414;2024-03-23T04:54:19;10.88;;;9.23;;
24813;SDS011;12904;50.088;11.414;2024-03-23T04:56:45;18.02;;;11.85;;
24813;SDS011;12904;50.088;11.414;2024-03-23T04:59:11;16.92;;;12.40;;
24813;SDS011;12904;50.088;11.414;2024-03-23T05:01:36;14.50;;;12.80;;
24813;SDS011;12904;50.088;11.414;2024-03-23T05:04:04;18.50;;;12.68;;
24813;SDS011;12904;50.088;11.414;2024-03-23T05:06:30;14.73;;;11.73;;
24813;SDS011;12904;50.088;11.414;2024-03-23T05:08:56;14.60;;;13.07;;
24813;SDS011;12904;50.088;11.414;2024-03-23T05:11:21;14.50;;;12.73;;
24813;SDS011;12904;50.088;11.414;2024-03-23T05:13:47;16.00;;;14.07;;
24813;SDS011;12904;50.088;11.414;2024-03-23T05:16:13;16.40;;;14.27;;
24813;SDS011;12904;50.088;11.414;2024-03-23T05:18:38;21.55;;;15.45;;
24813;SDS011;12904;50.088;11.414;2024-03-23T05:21:04;23.60;;;15.88;;
24813;SDS011;12904;50.088;11.414;2024-03-23T05:23:29;21.65;;;14.80;;
24813;SDS011;12904;50.088;11.414;2024-03-23T05:25:55;18.20;;;14.43;;
24813;SDS011;12904;50.088;11.414;2024-03-23T05:28:21;19.30;;;14.52;;
24813;SDS011;12904;50.088;11.414;2024-03-23T05:30:51;17.98;;;14.50;;
24813;SDS011;12904;50.088;11.414;2024-03-23T05:33:20;18.42;;;14.25;;
24813;SDS011;12904;50.088;11.414;2024-03-23T05:35:46;20.08;;;13.88;;
24813;SDS011;12904;50.088;11.414;2024-03-23T05:38:20;21.42;;;13.27;;
24813;SDS011;12904;50.088;11.414;2024-03-23T05:40:52;18.35;;;13.88;;
24813;SDS011;12904;50.088;11.414;2024-03-23T05:43:19;17.55;;;14.07;;
24813;SDS011;12904;50.088;11.414;2024-03-23T05:45:44;21.55;;;13.90;;
24813;SDS011;12904;50.088;11.414;2024-03-23T05:48:10;21.08;;;14.57;;
24813;SDS011;12904;50.088;11.414;2024-03-23T05:50:36;23.95;;;13.73;;
24813;SDS011;12904;50.088;11.414;2024-03-23T05:53:02;20.48;;;14.57;;
24813;SDS011;12904;50.088;11.414;2024-03-23T05:55:29;20.33;;;12.70;;
24813;SDS011;12904;50.088;11.414;2024-03-23T05:57:55;17.92;;;12.77;;
24813;SDS011;12904;50.088;11.414;2024-03-23T06:00:21;17.73;;;13.25;;
24813;SDS011;12904;50.088;11.414;2024-03-23T06:02:47;19.60;;;15.07;;
24813;SDS011;12904;50.088;11.414;2024-03-23T06:05:12;20.02;;;14.60;;
24813;SDS011;12904;50.088;11.414;2024-03-23T06:07:38;18.65;;;13.70;;
24813;SDS011;12904;50.088;11.414;2024-03-23T06:10:04;15.52;;;13.88;;
24813;SDS011;12904;50.088;11.414;2024-03-23T06:12:31;18.35;;;13.85;;
24813;SDS011;12904;50.088;11.414;2024-03-23T06:14:57;16.63;;;13.65;;
24813;SDS011;12904;50.088;11.414;2024-03-23T06:17:23;15.65;;;13.30;;
24813;SDS011;12904;50.088;11.414;2024-03-23T06:19:48;18.70;;;12.80;;
24813;SDS011;12904;50.088;11.414;2024-03-23T06:22:14;16.35;;;11.98;;
24813;SDS011;12904;50.088;11.414;2024-03-23T06:24:40;15.35;;;12.25;;
24813;SDS011;12904;50.088;11.414;2024-03-23T06:27:06;12.30;;;11.05;;
24813;SDS011;12904;50.088;11.414;2024-03-23T06:29:31;20.55;;;11.05;;
24813;SDS011;12904;50.088;11.414;2024-03-23T06:31:57;13.85;;;11.00;;
24813;SDS011;12904;50.088;11.414;2024-03-23T06:34:23;14.55;;;11.02;;
24813;SDS011;12904;50.088;11.414;2024-03-23T06:36:48;14.25;;;10.77;;
24813;SDS011;12904;50.088;11.414;2024-03-23T06:39:15;19.70;;;11.52;;
24813;SDS011;12904;50.088;11.414;2024-03-23T06:41:53;12.13;;;10.82;;
24813;SDS011;12904;50.088;11.414;2024-03-23T06:44:20;12.77;;;10.95;;
24813;SDS011;12904;50.088;11.414;2024-03-23T06:46:46;14.27;;;11.52;;
24813;SDS011;12904;50.088;11.414;2024-03-23T06:49:13;13.20;;;11.07;;
24813;SDS011;12904;50.088;11.414;2024-03-23T06:51:39;16.10;;;11.10;;
24813;SDS011;12904;50.088;11.414;2024-03-23T06:54:05;12.10;;;10.77;;
24813;SDS011;12904;50.088;11.414;2024-03-23T06:56:31;13.93;;;12.32;;
24813;SDS011;12904;50.088;11.414;2024-03-23T06:58:57;15.50;;;12.63;;
24813;SDS011;12904;50.088;11.414;2024-03-23T07:01:23;16.55;;;11.65;;
24813;SDS011;12904;50.088;11.414;2024-03-23T07:03:49;17.10;;;12.05;;
24813;SDS011;12904;50.088;11.414;2024-03-23T07:06:14;16.95;;;12.20;;
24813;SDS011;12904;50.088;11.414;2024-03-23T07:08:40;15.02;;;12.27;;
24813;SDS011;12904;50.088;11.414;2024-03-23T07:11:06;13.02;;;11.15;;
24813;SDS011;12904;50.088;11.414;2024-03-23T07:13:31;12.93;;;10.93;;
24813;SDS011;12904;50.088;11.414;2024-03-23T07:15:57;17.25;;;10.98;;
24813;SDS011;12904;50.088;11.414;2024-03-23T07:18:25;13.43;;;11.25;;
24813;SDS011;12904;50.088;11.414;2024-03-23T07:23:21;11.57;;;9.52;;
24813;SDS011;12904;50.088;11.414;2024-03-23T07:26:00;15.38;;;9.93;;
24813;SDS011;12904;50.088;11.414;2024-03-23T07:28:30;13.02;;;9.02;;
24813;SDS011;12904;50.088;11.414;2024-03-23T07:33:26;16.60;;;13.73;;
24813;SDS011;12904;50.088;11.414;2024-03-23T07:35:52;10.52;;;8.80;;
24813;SDS011;12904;50.088;11.414;2024-03-23T07:38:18;10.05;;;9.05;;
24813;SDS011;12904;50.088;11.414;2024-03-23T07:40:43;11.10;;;7.93;;
24813;SDS011;12904;50.088;11.414;2024-03-23T07:43:09;8.68;;;7.43;;
24813;SDS011;12904;50.088;11.414;2024-03-23T07:45:34;10.35;;;9.35;;
24813;SDS011;12904;50.088;11.414;2024-03-23T07:48:00;5.60;;;5.05;;
24813;SDS011;12904;50.088;11.414;2024-03-23T07:50:26;5.18;;;4.07;;
24813;SDS011;12904;50.088;11.414;2024-03-23T07:52:51;5.03;;;4.00;;
24813;SDS011;12904;50.088;11.414;2024-03-23T07:55:17;4.60;;;3.72;;
24813;SDS011;12904;50.088;11.414;2024-03-23T07:57:42;4.85;;;4.35;;
24813;SDS011;12904;50.088;11.414;2024-03-23T08:00:08;5.32;;;3.70;;
24813;SDS011;12904;50.088;11.414;2024-03-23T08:02:34;4.82;;;4.00;;
24813;SDS011;12904;50.088;11.414;2024-03-23T08:05:00;4.88;;;3.55;;
24813;SDS011;12904;50.088;11.414;2024-03-23T08:07:25;5.72;;;2.88;;
24813;SDS011;12904;50.088;11.414;2024-03-23T08:09:51;3.50;;;3.10;;
24813;SDS011;12904;50.088;11.414;2024-03-23T08:12:16;4.95;;;2.78;;
24813;SDS011;12904;50.088;11.414;2024-03-23T08:14:42;2.90;;;2.60;;
24813;SDS011;12904;50.088;11.414;2024-03-23T08:17:08;2.45;;;2.22;;
24813;SDS011;12904;50.088;11.414;2024-03-23T08:19:33;3.17;;;2.53;;
24813;SDS011;12904;50.088;11.414;2024-03-23T08:21:59;3.75;;;2.90;;
24813;SDS011;12904;50.088;11.414;2024-03-23T08:24:25;3.45;;;3.10;;
24813;SDS011;12904;50.088;11.414;2024-03-23T08:26:50;4.03;;;2.85;;
24813;SDS011;12904;50.088;11.414;2024-03-23T08:29:16;3.80;;;1.98;;
24813;SDS011;12904;50.088;11.414;2024-03-23T08:31:42;4.07;;;3.42;;
24813;SDS011;12904;50.088;11.414;2024-03-23T08:34:07;2.97;;;2.40;;
24813;SDS011;12904;50.088;11.414;2024-03-23T08:36:33;2.95;;;1.92;;
24813;SDS011;12904;50.088;11.414;2024-03-23T08:38:58;2.60;;;2.30;;
24813;SDS011;12904;50.088;11.414;2024-03-23T08:41:24;3.40;;;2.15;;
24813;SDS011;12904;50.088;11.414;2024-03-23T08:43:51;3.78;;;2.28;;
24813;SDS011;12904;50.088;11.414;2024-03-23T08:46:16;3.33;;;2.58;;
24813;SDS011;12904;50.088;11.414;2024-03-23T08:48:46;1.75;;;1.45;;
24813;SDS011;12904;50.088;11.414;2024-03-23T08:51:14;1.02;;;0.90;;
24813;SDS011;12904;50.088;11.414;2024-03-23T08:53:41;1.02;;;0.82;;
24813;SDS011;12904;50.088;11.414;2024-03-23T08:56:07;0.85;;;0.60;;
24813;SDS011;12904;50.088;11.414;2024-03-23T08:58:33;0.70;;;0.70;;
24813;SDS011;12904;50.088;11.414;2024-03-23T09:01:04;1.08;;;0.80;;
24813;SDS011;12904;50.088;11.414;2024-03-23T09:03:32;0.70;;;0.70;;
24813;SDS011;12904;50.088;11.414;2024-03-23T09:05:57;0.57;;;0.45;;
24813;SDS011;12904;50.088;11.414;2024-03-23T09:08:24;0.40;;;0.40;;
24813;SDS011;12904;50.088;11.414;2024-03-23T09:10:50;0.40;;;0.40;;
24813;SDS011;12904;50.088;11.414;2024-03-23T09:13:16;0.40;;;0.40;;
24813;SDS011;12904;50.088;11.414;2024-03-23T09:15:45;0.50;;;0.40;;
24813;SDS011;12904;50.088;11.414;2024-03-23T09:18:12;0.88;;;0.77;;
24813;SDS011;12904;50.088;11.414;2024-03-23T09:20:38;0.55;;;0.50;;
24813;SDS011;12904;50.088;11.414;2024-03-23T09:23:04;0.20;;;0.20;;
24813;SDS011;12904;50.088;11.414;2024-03-23T09:25:29;0.60;;;0.30;;
24813;SDS011;12904;50.088;11.414;2024-03-23T09:27:55;0.20;;;0.20;;
24813;SDS011;12904;50.088;11.414;2024-03-23T09:30:21;0.22;;;0.22;;
24813;SDS011;12904;50.088;11.414;2024-03-23T09:32:46;0.30;;;0.30;;
24813;SDS011;12904;50.088;11.414;2024-03-23T09:35:12;1.27;;;0.30;;
24813;SDS011;12904;50.088;11.414;2024-03-23T09:37:38;0.30;;;0.30;;
24813;SDS011;12904;50.088;11.414;2024-03-23T09:40:09;3.15;;;0.40;;
24813;SDS011;12904;50.088;11.414;2024-03-23T09:42:36;0.30;;;0.30;;
24813;SDS011;12904;50.088;11.414;2024-03-23T09:45:02;0.25;;;0.25;;
24813;SDS011;12904;50.088;11.414;2024-03-23T09:47:30;0.22;;;0.22;;
24813;SDS011;12904;50.088;11.414;2024-03-23T09:49:57;0.20;;;0.20;;
24813;SDS011;12904;50.088;11.414;2024-03-23T09:52:23;0.28;;;0.28;;
24813;SDS011;12904;50.088;11.414;2024-03-23T09:54:48;0.30;;;0.30;;
24813;SDS011;12904;50.088;11.414;2024-03-23T09:57:14;0.20;;;0.20;;
24813;SDS011;12904;50.088;11.414;2024-03-23T09:59:40;0.30;;;0.30;;
24813;SDS011;12904;50.088;11.414;2024-03-23T10:02:05;0.38;;;0.20;;
24813;SDS011;12904;50.088;11.414;2024-03-23T10:04:38;0.20;;;0.20;;
24813;SDS011;12904;50.088;11.414;2024-03-23T10:07:20;0.30;;;0.30;;
24813;SDS011;12904;50.088;11.414;2024-03-23T10:09:50;0.30;;;0.30;;
24813;SDS011;12904;50.088;11.414;2024-03-23T10:12:17;1.88;;;0.40;;
24813;SDS011;12904;50.088;11.414;2024-03-23T10:14:44;0.20;;;0.20;;
24813;SDS011;12904;50.088;11.414;2024-03-23T10:17:22;0.45;;;0.30;;
24813;SDS011;12904;50.088;11.414;2024-03-23T10:19:49;0.30;;;0.30;;
24813;SDS011;12904;50.088;11.414;2024-03-23T10:22:17;0.50;;;0.40;;
24813;SDS011;12904;50.088;11.414;2024-03-23T10:24:44;0.30;;;0.30;;
24813;SDS011;12904;50.088;11.414;2024-03-23T10:27:17;0.43;;;0.40;;
24813;SDS011;12904;50.088;11.414;2024-03-23T10:29:48;0.82;;;0.40;;
24813;SDS011;12904;50.088;11.414;2024-03-23T10:32:15;0.98;;;0.50;;
24813;SDS011;12904;50.088;11.414;2024-03-23T10:34:43;0.40;;;0.40;;
24813;SDS011;12904;50.088;11.414;2024-03-23T10:37:09;1.02;;;0.55;;
24813;SDS011;12904;50.088;11.414;2024-03-23T10:42:02;0.82;;;0.50;;
24813;SDS011;12904;50.088;11.414;2024-03-23T10:44:32;0.75;;;0.60;;
24813;SDS011;12904;50.088;11.414;2024-03-23T10:46:59;1.08;;;0.70;;
24813;SDS011;12904;50.088;11.414;2024-03-23T10:49:29;2.20;;;0.68;;
24813;SDS011;12904;50.088;11.414;2024-03-23T10:51:57;3.28;;;0.70;;
24813;SDS011;12904;50.088;11.414;2024-03-23T10:54:30;2.25;;;0.70;;
24813;SDS011;12904;50.088;11.414;2024-03-23T10:57:01;0.77;;;0.70;;
24813;SDS011;12904;50.088;11.414;2024-03-23T10:59:31;4.20;;;0.93;;
24813;SDS011;12904;50.088;11.414;2024-03-23T11:01:58;2.75;;;0.82;;
24813;SDS011;12904;50.088;11.414;2024-03-23T11:04:31;2.88;;;1.00;;
24813;SDS011;12904;50.088;11.414;2024-03-23T11:06:57;2.22;;;0.90;;
24813;SDS011;12904;50.088;11.414;2024-03-23T11:09:39;1.90;;;0.80;;
24813;SDS011;12904;50.088;11.414;2024-03-23T11:17:38;1.42;;;0.75;;
24813;SDS011;12904;50.088;11.414;2024-03-23T11:20:04;1.50;;;0.75;;
24813;SDS011;12904;50.088;11.414;2024-03-23T11:22:40;1.80;;;0.85;;
24813;SDS011;12904;50.088;11.414;2024-03-23T11:27:43;2.75;;;1.20;;
24813;SDS011;12904;50.088;11.414;2024-03-23T11:30:14;2.70;;;1.17;;
24813;SDS011;12904;50.088;11.414;2024-03-23T11:32:46;2.95;;;1.20;;
24813;SDS011;12904;50.088;11.414;2024-03-23T11:35:34;3.25;;;1.00;;
24813;SDS011;12904;50.088;11.414;2024-03-23T11:40:38;3.22;;;1.10;;
24813;SDS011;12904;50.088;11.414;2024-03-23T11:43:06;2.55;;;1.02;;
24813;SDS011;12904;50.088;11.414;2024-03-23T11:48:06;2.50;;;1.23;;
24813;SDS011;12904;50.088;11.414;2024-03-23T11:50:32;3.50;;;1.35;;
24813;SDS011;12904;50.088;11.414;2024-03-23T11:58:13;4.97;;;2.17;;
24813;SDS011;12904;50.088;11.414;2024-03-23T12:00:39;4.43;;;1.50;;
24813;SDS011;12904;50.088;11.414;2024-03-23T12:03:07;1.95;;;1.23;;
24813;SDS011;12904;50.088;11.414;2024-03-23T12:05:33;2.97;;;1.60;;
24813;SDS011;12904;50.088;11.414;2024-03-23T12:08:18;3.83;;;1.40;;
24813;SDS011;12904;50.088;11.414;2024-03-23T12:13:32;4.55;;;1.35;;
24813;SDS011;12904;50.088;11.414;2024-03-23T12:18:44;3.15;;;1.50;;
24813;SDS011;12904;50.088;11.414;2024-03-23T12:21:11;3.00;;;1.75;;
24813;SDS011;12904;50.088;11.414;2024-03-23T12:23:40;5.85;;;1.80;;
24813;SDS011;12904;50.088;11.414;2024-03-23T12:26:07;5.15;;;1.95;;
24813;SDS011;12904;50.088;11.414;2024-03-23T12:28:32;6.38;;;2.25;;
24813;SDS011;12904;50.088;11.414;2024-03-23T12:30:58;4.22;;;1.92;;
24813;SDS011;12904;50.088;11.414;2024-03-23T12:33:24;2.78;;;1.42;;
24813;SDS011;12904;50.088;11.414;2024-03-23T12:35:50;4.32;;;1.35;;
24813;SDS011;12904;50.088;11.414;2024-03-23T12:38:16;3.20;;;1.50;;
24813;SDS011;12904;50.088;11.414;2024-03-23T12:40:45;5.00;;;1.75;;
24813;SDS011;12904;50.088;11.414;2024-03-23T12:43:15;2.63;;;1.55;;
24813;SDS011;12904;50.088;11.414;2024-03-23T12:45:41;6.13;;;3.85;;
24813;SDS011;12904;50.088;11.414;2024-03-23T12:48:13;4.65;;;1.73;;
24813;SDS011;12904;50.088;11.414;2024-03-23T12:50:39;3.28;;;1.33;;
24813;SDS011;12904;50.088;11.414;2024-03-23T12:53:05;5.78;;;1.55;;
24813;SDS011;12904;50.088;11.414;2024-03-23T12:55:31;6.22;;;1.20;;
24813;SDS011;12904;50.088;11.414;2024-03-23T12:57:56;2.40;;;1.00;;
24813;SDS011;12904;50.088;11.414;2024-03-23T13:00:22;2.35;;;1.38;;
24813;SDS011;12904;50.088;11.414;2024-03-23T13:02:48;3.33;;;1.60;;
24813;SDS011;12904;50.088;11.414;2024-03-23T13:05:14;3.00;;;1.75;;
24813;SDS011;12904;50.088;11.414;2024-03-23T13:07:39;3.55;;;1.83;;
24813;SDS011;12904;50.088;11.414;2024-03-23T13:10:05;5.03;;;1.52;;
24813;SDS011;12904;50.088;11.414;2024-03-23T13:12:32;5.28;;;1.83;;
24813;SDS011;12904;50.088;11.414;2024-03-23T13:14:58;9.13;;;2.20;;
24813;SDS011;12904;50.088;11.414;2024-03-23T13:17:24;3.65;;;1.35;;
24813;SDS011;12904;50.088;11.414;2024-03-23T13:19:52;2.85;;;1.58;;
24813;SDS011;12904;50.088;11.414;2024-03-23T13:22:18;6.80;;;1.42;;
24813;SDS011;12904;50.088;11.414;2024-03-23T13:24:43;3.38;;;1.42;;
24813;SDS011;12904;50.088;11.414;2024-03-23T13:27:09;2.03;;;1.00;;
24813;SDS011;12904;50.088;11.414;2024-03-23T13:29:36;3.42;;;1.30;;
24813;SDS011;12904;50.088;11.414;2024-03-23T13:32:04;1.63;;;1.20;;
24813;SDS011;12904;50.088;11.414;2024-03-23T13:34:31;2.95;;;1.40;;
24813;SDS011;12904;50.088;11.414;2024-03-23T13:36:58;3.10;;;1.25;;
24813;SDS011;12904;50.088;11.414;2024-03-23T13:39:24;3.55;;;1.30;;
24813;SDS011;12904;50.088;11.414;2024-03-23T13:41:50;3.28;;;1.67;;
24813;SDS011;12904;50.088;11.414;2024-03-23T13:44:16;2.53;;;1.40;;
24813;SDS011;12904;50.088;11.414;2024-03-23T13:46:42;2.80;;;1.27;;
24813;SDS011;12904;50.088;11.414;2024-03-23T13:51:54;5.15;;;1.50;;
24813;SDS011;12904;50.088;11.414;2024-03-23T13:54:21;2.50;;;1.42;;
24813;SDS011;12904;50.088;11.414;2024-03-23T13:56:53;5.75;;;1.52;;
24813;SDS011;12904;50.088;11.414;2024-03-23T13:59:21;1.75;;;1.30;;
24813;SDS011;12904;50.088;11.414;2024-03-23T14:01:50;2.83;;;1.35;;
24813;SDS011;12904;50.088;11.414;2024-03-23T14:04:16;3.60;;;1.73;;
24813;SDS011;12904;50.088;11.414;2024-03-23T14:06:42;2.88;;;1.40;;
24813;SDS011;12904;50.088;11.414;2024-03-23T14:09:11;4.55;;;1.17;;
24813;SDS011;12904;50.088;11.414;2024-03-23T14:11:37;2.45;;;1.38;;
24813;SDS011;12904;50.088;11.414;2024-03-23T14:14:03;1.98;;;1.40;;
24813;SDS011;12904;50.088;11.414;2024-03-23T14:16:29;3.75;;;1.50;;
24813;SDS011;12904;50.088;11.414;2024-03-23T14:18:56;4.50;;;1.13;;
24813;SDS011;12904;50.088;11.414;2024-03-23T14:21:21;8.57;;;1.85;;
24813;SDS011;12904;50.088;11.414;2024-03-23T14:23:47;2.72;;;1.45;;
24813;SDS011;12904;50.088;11.414;2024-03-23T14:26:13;2.90;;;1.58;;
24813;SDS011;12904;50.088;11.414;2024-03-23T14:28:39;3.58;;;1.83;;
24813;SDS011;12904;50.088;11.414;2024-03-23T14:31:04;2.92;;;1.80;;
24813;SDS011;12904;50.088;11.414;2024-03-23T14:33:35;2.20;;;1.38;;
24813;SDS011;12904;50.088;11.414;2024-03-23T14:36:06;3.42;;;1.58;;
24813;SDS011;12904;50.088;11.414;2024-03-23T14:38:33;5.03;;;2.30;;
24813;SDS011;12904;50.088;11.414;2024-03-23T14:40:59;5.60;;;1.33;;
24813;SDS011;12904;50.088;11.414;2024-03-23T14:43:25;2.65;;;1.35;;
24813;SDS011;12904;50.088;11.414;2024-03-23T14:48:37;5.10;;;2.03;;
24813;SDS011;12904;50.088;11.414;2024-03-23T14:51:04;8.40;;;1.30;;
24813;SDS011;12904;50.088;11.414;2024-03-23T14:53:33;6.28;;;1.40;;
24813;SDS011;12904;50.088;11.414;2024-03-23T14:56:00;3.08;;;1.30;;
24813;SDS011;12904;50.088;11.414;2024-03-23T14:58:27;2.63;;;1.20;;
24813;SDS011;12904;50.088;11.414;2024-03-23T15:00:52;3.63;;;1.45;;
24813;SDS011;12904;50.088;11.414;2024-03-23T15:03:24;4.50;;;1.52;;
24813;SDS011;12904;50.088;11.414;2024-03-23T15:05:51;3.17;;;1.38;;
24813;SDS011;12904;50.088;11.414;2024-03-23T15:08:20;4.82;;;1.13;;
24813;SDS011;12904;50.088;11.414;2024-03-23T15:10:46;2.00;;;1.00;;
24813;SDS011;12904;50.088;11.414;2024-03-23T15:13:12;4.32;;;1.33;;
24813;SDS011;12904;50.088;11.414;2024-03-23T15:15:41;2.05;;;1.10;;
24813;SDS011;12904;50.088;11.414;2024-03-23T15:18:12;3.60;;;1.30;;
24813;SDS011;12904;50.088;11.414;2024-03-23T15:20:40;3.60;;;1.13;;
24813;SDS011;12904;50.088;11.414;2024-03-23T15:23:06;3.25;;;1.50;;
24813;SDS011;12904;50.088;11.414;2024-03-23T15:25:32;3.30;;;1.48;;
24813;SDS011;12904;50.088;11.414;2024-03-23T15:27:58;3.05;;;1.33;;
24813;SDS011;12904;50.088;11.414;2024-03-23T15:30:25;2.47;;;1.10;;
24813;SDS011;12904;50.088;11.414;2024-03-23T15:32:51;4.18;;;0.90;;
24813;SDS011;12904;50.088;11.414;2024-03-23T15:35:17;1.38;;;1.05;;
24813;SDS011;12904;50.088;11.414;2024-03-23T15:37:44;1.98;;;1.25;;
24813;SDS011;12904;50.088;11.414;2024-03-23T15:40:09;1.92;;;0.90;;
24813;SDS011;12904;50.088;11.414;2024-03-23T15:42:36;2.50;;;1.23;;
24813;SDS011;12904;50.088;11.414;2024-03-23T15:45:02;2.30;;;0.85;;
24813;SDS011;12904;50.088;11.414;2024-03-23T15:47:32;1.88;;;0.73;;
24813;SDS011;12904;50.088;11.414;2024-03-23T15:49:58;2.45;;;0.80;;
24813;SDS011;12904;50.088;11.414;2024-03-23T15:52:23;1.05;;;0.85;;
24813;SDS011;12904;50.088;11.414;2024-03-23T15:54:49;1.65;;;0.80;;
24813;SDS011;12904;50.088;11.414;2024-03-23T15:57:14;2.75;;;0.80;;